Time;durP1;ratioP1;P1;durP2;ratioP2;P2;SDS_P1;SDS_P2;PMS_P1;PMS_P2;Temp;Humidity;BMP_temperature;BMP_pressure;BME280_temperature;BME280_humidity;BME280_pressure;Samples;Min_cycle;Max_cycle;Signal;HPM_P1;HPM_P2
2021/07/20 00:02:46;;;;;;;14.35;6.10;;;13.40;99.90;;;;;;4998595;28;20393;-78
2021/07/20 00:05:13;;;;;;;13.30;4.85;;;13.30;99.90;;;;;;5014178;28;20029;-78
2021/07/20 00:07:40;;;;;;;13.40;5.32;;;13.30;99.90;;;;;;5014103;28;20043;-78
2021/07/20 00:10:11;;;;;;;12.70;4.93;;;13.30;99.90;;;;;;5014041;28;20033;-78
2021/07/20 00:12:37;;;;;;;8.77;5.40;;;13.40;99.90;;;;;;5010211;28;20085;-79
2021/07/20 00:15:07;;;;;;;9.93;4.63;;;13.40;99.90;;;;;;4993908;28;20035;-78
2021/07/20 00:17:33;;;;;;;15.35;4.78;;;13.40;99.90;;;;;;4993390;28;20506;-78
2021/07/20 00:19:58;;;;;;;8.90;5.75;;;13.50;99.90;;;;;;4994352;28;20046;-78
2021/07/20 00:22:24;;;;;;;10.02;5.57;;;13.40;99.90;;;;;;4993890;28;20080;-78
2021/07/20 00:24:49;;;;;;;13.63;5.82;;;13.50;99.90;;;;;;5007375;28;20121;-78
2021/07/20 00:27:15;;;;;;;10.52;4.88;;;13.50;99.90;;;;;;5013631;28;20066;-78
2021/07/20 00:29:42;;;;;;;10.93;4.88;;;13.50;99.90;;;;;;5013704;28;20037;-78
2021/07/20 00:32:08;;;;;;;11.90;5.22;;;13.50;99.90;;;;;;5013450;28;20034;-78
2021/07/20 00:34:34;;;;;;;13.35;5.85;;;13.60;99.90;;;;;;4999062;28;20495;-79
2021/07/20 00:36:59;;;;;;;10.77;4.63;;;13.50;99.90;;;;;;4994023;28;20034;-78
2021/07/20 00:39:25;;;;;;;11.10;4.53;;;13.50;99.90;;;;;;4992741;28;20049;-78
2021/07/20 00:41:50;;;;;;;13.88;5.18;;;13.60;99.90;;;;;;5008533;28;20072;-79
2021/07/20 00:44:16;;;;;;;17.17;5.25;;;13.60;99.90;;;;;;4996150;28;20026;-78
2021/07/20 00:46:42;;;;;;;16.75;5.22;;;13.60;99.90;;;;;;4992454;28;20048;-79
2021/07/20 00:49:07;;;;;;;12.93;4.88;;;13.60;99.90;;;;;;4993782;28;20022;-78
2021/07/20 00:51:33;;;;;;;9.57;4.20;;;13.60;99.90;;;;;;4993492;28;20038;-78
2021/07/20 00:53:59;;;;;;;10.77;4.35;;;13.70;99.90;;;;;;4996195;28;20092;-79
2021/07/20 00:56:25;;;;;;;11.30;5.32;;;13.70;99.90;;;;;;5013068;28;20056;-79
2021/07/20 00:58:50;;;;;;;14.07;5.03;;;13.70;99.90;;;;;;5013122;28;20034;-79
2021/07/20 01:01:16;;;;;;;14.35;4.55;;;13.70;99.90;;;;;;5012854;28;20538;-78
2021/07/20 01:03:42;;;;;;;21.10;4.70;;;13.80;99.90;;;;;;5013108;28;20490;-79
2021/07/20 01:06:09;;;;;;;12.25;5.88;;;13.70;99.90;;;;;;5009537;28;20026;-78
2021/07/20 01:08:35;;;;;;;15.57;5.40;;;13.70;99.90;;;;;;5013004;28;20030;-79
2021/07/20 01:11:02;;;;;;;10.43;5.45;;;13.70;99.90;;;;;;5027627;28;20499;-79
2021/07/20 01:13:30;;;;;;;8.73;5.03;;;13.70;99.90;;;;;;5012737;28;20045;-78
2021/07/20 01:15:57;;;;;;;9.23;5.80;;;13.60;99.90;;;;;;4999498;28;20518;-78
2021/07/20 01:18:24;;;;;;;12.02;6.10;;;13.60;99.90;;;;;;4993226;28;20045;-78
2021/07/20 01:20:50;;;;;;;8.43;4.90;;;13.60;99.90;;;;;;5008325;28;20161;-78
2021/07/20 01:23:26;;;;;;;12.30;5.30;;;13.50;99.90;;;;;;4992678;28;20108;-78
2021/07/20 01:25:52;;;;;;;13.70;5.88;;;13.50;99.90;;;;;;5002343;28;20112;-78
2021/07/20 01:28:23;;;;;;;12.52;5.10;;;13.40;99.90;;;;;;4998881;28;20058;-78
2021/07/20 01:30:55;;;;;;;7.15;4.75;;;13.40;99.90;;;;;;4993026;28;20031;-78
2021/07/20 01:33:22;;;;;;;11.48;5.78;;;13.30;99.90;;;;;;4992803;28;20031;-78
2021/07/20 01:35:50;;;;;;;9.77;4.63;;;13.30;99.90;;;;;;4998681;28;20030;-78
2021/07/20 01:38:18;;;;;;;13.15;4.72;;;13.20;99.90;;;;;;5012515;28;20113;-78
2021/07/20 01:40:44;;;;;;;10.55;5.53;;;13.20;99.90;;;;;;5012425;28;20038;-78
2021/07/20 01:43:11;;;;;;;11.38;5.55;;;13.20;99.90;;;;;;5012113;28;20022;-78
2021/07/20 01:45:38;;;;;;;18.13;6.32;;;13.30;99.90;;;;;;5010464;28;20030;-79
2021/07/20 01:48:06;;;;;;;20.92;5.82;;;13.20;99.90;;;;;;5012357;28;20028;-79
2021/07/20 01:50:34;;;;;;;12.10;6.03;;;13.20;99.90;;;;;;5012150;28;20536;-78
2021/07/20 01:53:00;;;;;;;17.42;6.38;;;13.10;99.90;;;;;;5026407;28;20034;-78
2021/07/20 01:55:27;;;;;;;12.65;5.53;;;13.10;99.90;;;;;;5012121;28;20026;-78
2021/07/20 01:57:54;;;;;;;8.48;5.63;;;13.20;99.90;;;;;;5012234;28;20026;-78
2021/07/20 02:00:21;;;;;;;12.75;5.97;;;13.20;99.90;;;;;;5012254;28;20026;-78
2021/07/20 02:08:24;;;;;;;18.17;6.25;;;13.20;99.90;;;;;;4992531;28;20402;-78
2021/07/20 02:08:38;;;;;;;12.52;6.20;;;13.20;99.90;;;;;;4992312;28;20510;-78
2021/07/20 02:11:07;;;;;;;13.77;5.75;;;13.20;99.90;;;;;;4992480;28;20030;-78
2021/07/20 02:13:41;;;;;;;11.82;5.13;;;13.20;99.90;;;;;;4992218;28;20662;-78
2021/07/20 02:16:10;;;;;;;9.73;5.43;;;13.20;99.90;;;;;;4992401;28;20026;-79
2021/07/20 02:18:39;;;;;;;14.40;5.53;;;13.30;99.90;;;;;;4992379;28;20049;-78
2021/07/20 02:21:06;;;;;;;14.77;5.88;;;13.20;99.90;;;;;;4992281;28;20080;-78
2021/07/20 02:23:33;;;;;;;11.35;5.03;;;13.20;99.90;;;;;;5007128;28;20041;-78
2021/07/20 02:26:00;;;;;;;10.88;5.28;;;13.20;99.90;;;;;;4992562;28;20391;-78
2021/07/20 02:28:27;;;;;;;14.27;5.68;;;13.20;99.90;;;;;;4992352;28;20022;-79
2021/07/20 02:30:53;;;;;;;14.45;5.68;;;13.10;99.90;;;;;;4990947;28;20077;-78
2021/07/20 02:33:20;;;;;;;15.35;6.10;;;13.10;99.90;;;;;;4992099;28;20069;-78
2021/07/20 02:35:47;;;;;;;11.25;6.25;;;13.00;99.90;;;;;;5004222;28;20072;-78
2021/07/20 02:38:13;;;;;;;13.50;4.75;;;12.90;99.90;;;;;;5026866;28;20053;-78
2021/07/20 02:40:40;;;;;;;15.05;5.88;;;12.80;99.90;;;;;;5011771;28;20029;-78
2021/07/20 02:43:06;;;;;;;23.95;6.28;;;12.70;99.90;;;;;;5026623;28;20036;-79
2021/07/20 02:45:35;;;;;;;12.02;5.78;;;12.50;99.90;;;;;;5010124;28;20022;-78
2021/07/20 02:48:01;;;;;;;18.98;7.25;;;12.50;99.90;;;;;;5011785;28;20069;-78
2021/07/20 02:50:28;;;;;;;9.95;5.53;;;12.50;99.90;;;;;;5010410;28;20037;-78
2021/07/20 02:52:55;;;;;;;15.23;7.22;;;12.60;99.90;;;;;;5011334;28;20109;-79
2021/07/20 02:55:21;;;;;;;11.20;6.18;;;12.60;99.90;;;;;;5023132;28;20022;-78
2021/07/20 02:57:48;;;;;;;18.40;6.80;;;12.60;99.90;;;;;;4993785;28;20113;-79
2021/07/20 03:00:14;;;;;;;14.43;6.43;;;12.50;99.90;;;;;;4995823;28;20515;-78
2021/07/20 03:02:44;;;;;;;13.65;6.68;;;12.40;99.90;;;;;;5010501;28;20509;-78
2021/07/20 03:05:10;;;;;;;13.60;7.10;;;12.40;99.90;;;;;;4995653;28;20026;-78
2021/07/20 03:07:37;;;;;;;13.88;7.45;;;12.30;99.90;;;;;;5019518;28;20431;-78
2021/07/20 03:10:05;;;;;;;13.30;6.68;;;12.20;99.90;;;;;;5009270;28;20021;-78
2021/07/20 03:12:31;;;;;;;11.18;6.88;;;12.20;99.90;;;;;;5030027;28;20032;-78
2021/07/20 03:14:58;;;;;;;15.90;7.35;;;12.10;99.90;;;;;;5015113;28;20396;-78
2021/07/20 03:17:26;;;;;;;12.43;6.57;;;12.00;99.90;;;;;;5000422;28;20058;-78
2021/07/20 03:19:53;;;;;;;20.73;7.88;;;12.00;99.90;;;;;;4995430;28;20034;-78
2021/07/20 03:22:24;;;;;;;18.65;7.43;;;11.90;99.90;;;;;;4994994;28;20030;-78
2021/07/20 03:24:51;;;;;;;14.23;6.82;;;11.90;99.90;;;;;;4995386;28;20076;-78
2021/07/20 03:27:17;;;;;;;14.57;6.65;;;11.80;99.90;;;;;;5005433;28;20018;-78
2021/07/20 03:29:44;;;;;;;20.17;7.65;;;11.70;99.90;;;;;;5014823;28;20025;-78
2021/07/20 03:32:13;;;;;;;15.10;7.80;;;11.70;99.90;;;;;;5014576;28;20088;-78
2021/07/20 03:34:40;;;;;;;17.63;8.38;;;11.60;99.90;;;;;;5029992;28;20410;-78
2021/07/20 03:37:07;;;;;;;15.27;7.63;;;11.60;99.90;;;;;;5011399;28;20363;-78
2021/07/20 03:39:35;;;;;;;18.63;8.27;;;11.60;99.90;;;;;;5014710;28;20397;-78
2021/07/20 03:42:01;;;;;;;15.77;8.20;;;11.50;99.90;;;;;;5014383;28;20572;-79
2021/07/20 03:44:29;;;;;;;13.70;7.72;;;11.50;99.90;;;;;;5029788;28;20137;-78
2021/07/20 03:46:56;;;;;;;13.65;7.72;;;11.60;99.90;;;;;;5012532;28;20474;-78
2021/07/20 03:49:25;;;;;;;18.92;8.57;;;11.60;99.90;;;;;;5010008;28;20529;-78
2021/07/20 03:51:51;;;;;;;16.00;7.85;;;11.60;99.90;;;;;;4994696;28;20592;-78
2021/07/20 03:54:18;;;;;;;13.18;8.57;;;11.70;99.90;;;;;;4994809;28;20491;-78
2021/07/20 03:56:46;;;;;;;17.38;9.25;;;11.70;99.90;;;;;;4993459;28;20469;-78
2021/07/20 03:59:13;;;;;;;12.23;8.25;;;11.70;99.90;;;;;;5011700;28;20053;-78
2021/07/20 04:01:40;;;;;;;23.60;8.77;;;11.60;99.90;;;;;;5014003;28;20025;-78
2021/07/20 04:04:07;;;;;;;17.35;8.40;;;11.60;99.90;;;;;;5014262;28;20025;-78
2021/07/20 04:06:34;;;;;;;15.70;8.45;;;11.60;99.90;;;;;;5014034;28;20025;-78
2021/07/20 04:09:01;;;;;;;16.25;8.68;;;11.60;99.90;;;;;;5001127;28;20030;-78
2021/07/20 04:11:26;;;;;;;20.17;9.55;;;11.70;99.90;;;;;;4994012;28;20110;-78
2021/07/20 04:13:53;;;;;;;21.92;9.00;;;11.70;99.90;;;;;;4994490;28;20066;-78
2021/07/20 04:16:22;;;;;;;22.25;9.85;;;11.70;99.90;;;;;;4994380;28;20050;-78
2021/07/20 04:18:48;;;;;;;18.17;9.85;;;11.80;99.90;;;;;;4995431;28;20034;-78
2021/07/20 04:21:13;;;;;;;25.15;9.77;;;11.80;99.90;;;;;;5009179;28;20022;-78
2021/07/20 04:23:40;;;;;;;18.90;8.75;;;11.90;99.90;;;;;;4994111;28;20026;-78
2021/07/20 04:26:07;;;;;;;20.77;9.35;;;11.90;99.90;;;;;;4994202;28;20018;-78
2021/07/20 04:28:34;;;;;;;21.52;10.10;;;12.00;99.90;;;;;;4995170;28;20429;-78
2021/07/20 04:31:02;;;;;;;19.83;9.00;;;12.20;99.90;;;;;;5012383;28;20091;-78
2021/07/20 04:33:31;;;;;;;23.02;10.80;;;12.30;99.90;;;;;;5028714;28;20032;-79
2021/07/20 04:35:58;;;;;;;23.80;11.10;;;12.50;99.90;;;;;;5012270;28;20030;-79
2021/07/20 04:38:25;;;;;;;31.23;11.18;;;12.70;99.90;;;;;;5013418;28;20494;-79
2021/07/20 04:40:51;;;;;;;21.58;10.43;;;12.80;99.90;;;;;;4995000;28;20045;-79
2021/07/20 04:43:17;;;;;;;19.10;8.95;;;12.90;99.90;;;;;;4993572;28;20027;-78
2021/07/20 04:45:46;;;;;;;21.42;10.88;;;12.90;99.90;;;;;;4993767;28;20072;-79
2021/07/20 04:48:15;;;;;;;21.80;9.80;;;13.00;99.90;;;;;;4992646;28;20740;-79
2021/07/20 04:50:42;;;;;;;22.92;10.70;;;12.90;99.90;;;;;;5022666;28;20403;-79
2021/07/20 04:53:09;;;;;;;20.35;10.55;;;13.20;99.90;;;;;;5013161;28;20029;-79
2021/07/20 04:55:38;;;;;;;20.33;10.18;;;13.30;99.90;;;;;;5013006;28;20057;-79
2021/07/20 04:58:04;;;;;;;17.23;10.32;;;13.40;99.90;;;;;;5011944;28;20030;-79
2021/07/20 05:00:30;;;;;;;22.55;10.00;;;13.60;99.90;;;;;;4996082;28;20080;-79
2021/07/20 05:02:59;;;;;;;28.30;11.60;;;13.70;99.90;;;;;;4992012;28;20022;-79
2021/07/20 05:05:25;;;;;;;23.95;11.40;;;13.70;99.90;;;;;;4993374;28;20093;-79
2021/07/20 05:07:52;;;;;;;20.00;11.30;;;13.80;99.90;;;;;;5008541;28;20028;-79
2021/07/20 05:10:19;;;;;;;22.17;11.02;;;13.90;99.90;;;;;;5006053;28;20088;-80
2021/07/20 05:12:45;;;;;;;21.20;10.52;;;13.90;99.90;;;;;;5012561;28;20026;-80
2021/07/20 05:15:14;;;;;;;19.90;10.68;;;14.10;99.90;;;;;;5012880;28;20061;-79
2021/07/20 05:17:40;;;;;;;22.73;12.07;;;14.30;99.90;;;;;;5011652;28;20026;-79
2021/07/20 05:20:07;;;;;;;23.33;11.65;;;14.40;99.90;;;;;;5003462;28;20398;-78
2021/07/20 05:22:37;;;;;;;21.35;10.40;;;14.50;99.90;;;;;;4992758;28;20073;-77
2021/07/20 05:25:08;;;;;;;21.90;11.10;;;14.60;99.90;;;;;;4993102;28;20065;-78
2021/07/20 05:27:54;;;;;;;26.27;11.60;;;14.70;99.90;;;;;;4993154;28;20046;-79
2021/07/20 05:30:21;;;;;;;20.05;10.50;;;14.90;99.90;;;;;;5000473;28;20457;-79
2021/07/20 05:32:47;;;;;;;24.30;10.80;;;15.40;99.90;;;;;;5012435;28;20386;-78
2021/07/20 05:35:15;;;;;;;19.45;9.95;;;15.40;99.90;;;;;;5011292;28;20030;-79
2021/07/20 05:37:42;;;;;;;20.55;11.57;;;15.50;99.90;;;;;;5012574;28;20025;-79
2021/07/20 05:40:10;;;;;;;15.00;9.05;;;15.50;99.90;;;;;;5010874;28;20030;-80
2021/07/20 05:42:36;;;;;;;21.63;10.43;;;15.60;99.90;;;;;;5012083;28;20529;-81
2021/07/20 05:45:05;;;;;;;23.42;10.43;;;15.60;99.90;;;;;;5012418;28;20033;-80
2021/07/20 05:47:34;;;;;;;23.40;10.25;;;15.70;99.90;;;;;;5011167;28;20437;-81
2021/07/20 05:50:00;;;;;;;19.48;8.68;;;15.70;99.90;;;;;;5012336;28;20014;-82
2021/07/20 05:52:27;;;;;;;14.70;9.48;;;15.70;99.90;;;;;;4992956;28;20026;-81
2021/07/20 05:54:54;;;;;;;16.02;9.55;;;15.90;99.90;;;;;;4992475;28;20149;-83
2021/07/20 05:57:26;;;;;;;19.33;9.30;;;16.20;99.90;;;;;;4992719;28;20038;-81
2021/07/20 05:59:53;;;;;;;24.20;9.60;;;16.50;99.90;;;;;;4992714;28;20038;-80
2021/07/20 06:02:20;;;;;;;20.50;9.70;;;16.50;99.90;;;;;;5005217;28;20026;-81
2021/07/20 06:04:46;;;;;;;19.90;10.07;;;16.50;99.90;;;;;;5011776;28;20050;-83
2021/07/20 06:07:13;;;;;;;17.98;9.30;;;16.40;99.90;;;;;;5011809;28;20112;-81
2021/07/20 06:09:44;;;;;;;19.63;9.40;;;16.10;99.90;;;;;;5011910;28;20080;-80
2021/07/20 06:12:12;;;;;;;17.95;9.60;;;16.10;99.90;;;;;;5000117;28;20073;-81
2021/07/20 06:14:38;;;;;;;22.38;9.55;;;16.10;99.90;;;;;;4992233;28;20081;-80
2021/07/20 06:17:05;;;;;;;21.83;10.90;;;16.30;99.90;;;;;;4992338;28;20032;-80
2021/07/20 06:19:35;;;;;;;27.02;10.38;;;16.30;99.90;;;;;;4992048;28;20479;-80
2021/07/20 06:22:09;;;;;;;18.27;9.57;;;16.40;99.90;;;;;;4998541;28;20084;-80
2021/07/20 06:24:42;;;;;;;;;;;16.50;99.90;;;;;;5012177;28;20029;-80
2021/07/20 06:27:10;;;;;;;23.67;10.07;;;16.70;99.90;;;;;;5011956;28;19951;-80
2021/07/20 06:29:37;;;;;;;21.55;10.27;;;16.80;99.90;;;;;;4995375;28;20437;-82
2021/07/20 06:32:03;;;;;;;18.60;9.93;;;16.90;99.90;;;;;;5007264;28;20148;-78
2021/07/20 06:34:29;;;;;;;19.40;10.95;;;17.10;99.90;;;;;;5015066;28;20034;-78
2021/07/20 06:36:56;;;;;;;20.35;9.93;;;17.10;99.90;;;;;;5015256;28;20482;-78
2021/07/20 06:39:22;;;;;;;18.60;9.85;;;17.40;99.90;;;;;;5015749;28;20041;-82
2021/07/20 06:41:49;;;;;;;24.52;8.95;;;17.80;99.90;;;;;;5015275;28;20026;-80
2021/07/20 06:44:17;;;;;;;17.52;9.80;;;17.90;99.90;;;;;;5014924;28;20406;-81
2021/07/20 06:46:42;;;;;;;21.70;9.75;;;17.90;99.90;;;;;;5015503;28;20030;-82
2021/07/20 06:49:11;;;;;;;18.88;9.25;;;17.90;99.90;;;;;;5015507;28;20104;-78
2021/07/20 06:51:37;;;;;;;18.10;10.15;;;17.90;99.90;;;;;;5015265;28;20075;-79
2021/07/20 06:54:02;;;;;;;17.17;9.27;;;17.80;99.90;;;;;;5001194;28;20487;-81
2021/07/20 06:56:33;;;;;;;14.75;9.45;;;17.80;99.90;;;;;;4995846;28;20077;-78
2021/07/20 06:59:00;;;;;;;16.15;9.30;;;17.90;99.90;;;;;;4995765;28;20049;-77
2021/07/20 07:01:29;;;;;;;15.38;9.40;;;17.80;99.90;;;;;;4995468;28;20053;-77
2021/07/20 07:04:03;;;;;;;21.85;9.70;;;17.50;99.90;;;;;;5020643;28;20402;-77
2021/07/20 07:06:32;;;;;;;22.05;10.88;;;17.50;99.90;;;;;;5015144;28;20026;-78
2021/07/20 07:08:59;;;;;;;26.38;10.07;;;17.40;99.90;;;;;;5015099;28;20084;-78
2021/07/20 07:11:26;;;;;;;19.88;9.88;;;17.50;99.90;;;;;;5014672;28;20018;-78
2021/07/20 07:13:53;;;;;;;15.00;8.65;;;17.70;99.90;;;;;;5008526;28;20053;-77
2021/07/20 07:16:20;;;;;;;18.75;8.93;;;17.90;99.90;;;;;;4995480;28;20026;-77
2021/07/20 07:18:46;;;;;;;20.38;9.70;;;18.30;99.90;;;;;;4995419;28;20018;-76
2021/07/20 07:21:13;;;;;;;18.80;9.07;;;18.20;99.90;;;;;;4995146;28;20036;-76
2021/07/20 07:23:42;;;;;;;14.60;7.72;;;18.30;99.90;;;;;;4996583;28;20030;-77
2021/07/20 07:26:10;;;;;;;15.07;8.65;;;18.60;99.90;;;;;;5014811;28;20026;-77
2021/07/20 07:28:38;;;;;;;15.10;9.30;;;18.70;99.90;;;;;;5014884;28;20025;-77
2021/07/20 07:31:05;;;;;;;19.08;9.35;;;18.60;99.90;;;;;;5014880;28;20026;-79
2021/07/20 07:33:30;;;;;;;38.38;10.18;;;18.50;99.90;;;;;;5014620;28;20088;-77
2021/07/20 07:35:56;;;;;;;23.25;8.88;;;18.70;99.90;;;;;;5011509;28;20042;-81
2021/07/20 07:38:23;;;;;;;15.60;8.57;;;18.70;99.90;;;;;;5014631;28;20022;-79
2021/07/20 07:40:53;;;;;;;19.52;9.68;;;18.60;99.90;;;;;;5014544;28;20486;-79
2021/07/20 07:43:20;;;;;;;21.98;9.88;;;18.30;99.90;;;;;;5013982;28;20022;-79
2021/07/20 07:45:48;;;;;;;17.00;9.55;;;18.20;99.90;;;;;;4999948;28;20400;-79
2021/07/20 07:48:15;;;;;;;23.42;9.55;;;18.10;99.90;;;;;;4994827;28;20022;-80
2021/07/20 07:50:41;;;;;;;21.02;8.73;;;18.20;99.90;;;;;;4993532;28;20030;-80
2021/07/20 07:53:07;;;;;;;18.08;9.50;;;18.10;99.90;;;;;;5009588;28;20030;-78
2021/07/20 07:55:34;;;;;;;15.07;9.68;;;18.00;99.90;;;;;;5001800;28;20033;-79
2021/07/20 07:58:00;;;;;;;21.40;10.05;;;18.20;99.90;;;;;;5010360;28;20034;-78
2021/07/20 08:00:28;;;;;;;22.58;9.45;;;18.40;99.90;;;;;;4994614;28;20037;-78
2021/07/20 08:02:58;;;;;;;21.80;9.30;;;18.50;99.90;;;;;;4994345;28;20027;-79
2021/07/20 08:05:24;;;;;;;15.57;9.43;;;18.40;99.90;;;;;;4998402;28;20033;-79
2021/07/20 08:07:52;;;;;;;16.35;10.18;;;18.40;99.90;;;;;;5011297;28;20491;-79
2021/07/20 08:10:19;;;;;;;20.77;8.98;;;18.60;99.90;;;;;;4993338;28;20030;-79
2021/07/20 08:12:46;;;;;;;20.83;9.18;;;18.70;99.90;;;;;;4994000;28;20069;-80
2021/07/20 08:15:15;;;;;;;19.75;9.85;;;18.90;99.90;;;;;;4994273;28;20100;-78
2021/07/20 08:17:42;;;;;;;17.10;9.02;;;19.10;99.90;;;;;;4994429;28;20034;-79
2021/07/20 08:20:09;;;;;;;14.55;9.45;;;19.10;99.90;;;;;;4994354;28;20030;-78
2021/07/20 08:22:35;;;;;;;13.70;8.95;;;19.10;99.90;;;;;;5012602;28;20073;-78
2021/07/20 08:25:15;;;;;;;17.48;9.70;;;18.90;99.90;;;;;;5013739;28;20434;-78
2021/07/20 08:28:10;;;;;;;13.70;8.32;;;18.70;99.90;;;;;;5011910;28;20088;-78
2021/07/20 08:30:41;;;;;;;27.38;10.13;;;18.50;99.90;;;;;;5004846;28;20034;-78
2021/07/20 08:33:10;;;;;;;17.30;9.55;;;18.30;99.90;;;;;;5013358;28;20509;-79
2021/07/20 08:35:38;;;;;;;20.85;9.60;;;18.40;99.90;;;;;;5013465;28;20026;-77
2021/07/20 08:38:10;;;;;;;18.23;9.75;;;18.50;99.90;;;;;;5002418;28;20031;-79
2021/07/20 08:41:04;;;;;;;17.17;9.10;;;18.60;99.90;;;;;;4993759;28;20030;-78
2021/07/20 08:43:47;;;;;;;16.23;9.20;;;18.70;99.90;;;;;;4993553;28;20033;-78
2021/07/20 08:46:18;;;;;;;15.95;9.45;;;18.70;99.90;;;;;;4993824;28;20026;-79
2021/07/20 08:48:58;;;;;;;19.80;10.10;;;19.10;99.90;;;;;;5006338;28;20084;-78
2021/07/20 08:51:56;;;;;;;22.63;10.00;;;19.50;99.90;;;;;;5013240;28;20018;-79
2021/07/20 08:54:28;;;;;;;16.88;9.63;;;19.80;99.90;;;;;;5012828;28;20088;-79
2021/07/20 08:56:59;;;;;;;18.97;11.30;;;20.20;99.90;;;;;;5012836;28;20061;-79
2021/07/20 08:59:31;;;;;;;21.45;9.70;;;20.10;99.90;;;;;;5012325;28;20515;-79
2021/07/20 09:02:15;;;;;;;14.23;9.55;;;20.30;99.90;;;;;;4993225;28;20045;-78
2021/07/20 09:04:41;;;;;;;;;;;20.20;99.90;;;;;;4993992;28;20543;-77
2021/07/20 09:07:14;;;;;;;21.58;10.73;;;19.90;99.90;;;;;;5001142;28;19905;-77
2021/07/20 09:09:45;;;;;;;17.65;10.60;;;19.70;99.90;;;;;;5008651;28;20037;-77
2021/07/20 09:12:27;;;;;;;14.70;9.88;;;19.30;99.90;;;;;;5012675;28;20073;-78
2021/07/20 09:15:00;;;;;;;19.20;10.27;;;19.10;99.90;;;;;;5012261;28;20107;-77
2021/07/20 09:17:34;;;;;;;15.93;9.52;;;19.30;99.90;;;;;;5012851;28;20057;-77
2021/07/20 09:20:09;;;;;;;20.55;10.50;;;19.80;99.90;;;;;;4997702;28;20117;-79
2021/07/20 09:22:44;;;;;;;18.85;10.63;;;20.30;99.90;;;;;;5007821;28;20034;-81
2021/07/20 09:25:41;;;;;;;15.20;9.32;;;20.60;99.90;;;;;;4993191;28;20391;-80
2021/07/20 09:28:14;;;;;;;23.98;10.70;;;20.70;99.90;;;;;;4992075;28;20065;-80
2021/07/20 09:30:43;;;;;;;18.92;10.07;;;20.30;99.90;;;;;;5007248;28;20041;-81
2021/07/20 09:33:14;;;;;;;16.83;9.43;;;20.40;99.90;;;;;;4991546;28;20088;-81
2021/07/20 09:35:55;;;;;;;17.05;9.48;;;20.40;99.90;;;;;;4992837;28;20026;-79
2021/07/20 09:38:40;;;;;;;23.27;10.00;;;20.50;99.90;;;;;;4992931;28;20034;-82
2021/07/20 09:41:21;;;;;;;18.73;9.77;;;20.80;99.90;;;;;;5001254;28;20041;-83
2021/07/20 09:43:57;;;;;;;21.63;10.82;;;21.10;99.90;;;;;;5021006;28;20017;-83
2021/07/20 09:46:54;;;;;;;17.85;10.40;;;20.90;99.90;;;;;;5011960;28;20049;-83
2021/07/20 09:49:38;;;;;;;16.50;9.80;;;21.00;99.90;;;;;;5006580;28;20121;-82
2021/07/20 09:52:09;;;;;;;18.13;9.93;;;20.90;99.90;;;;;;5012042;28;20028;-82
2021/07/20 09:55:00;;;;;;;16.90;9.75;;;20.70;99.90;;;;;;5027391;28;20049;-81
2021/07/20 09:57:55;;;;;;;15.82;7.85;;;20.60;99.90;;;;;;5012211;28;20033;-81
2021/07/20 10:00:23;;;;;;;16.63;8.57;;;20.50;99.90;;;;;;5005961;28;20054;-81
2021/07/20 10:03:12;;;;;;;14.82;9.00;;;20.40;99.90;;;;;;4992185;28;20034;-81
2021/07/20 10:06:01;;;;;;;16.45;9.00;;;20.50;99.90;;;;;;4992482;28;20023;-82
2021/07/20 10:08:33;;;;;;;14.50;9.55;;;20.60;99.90;;;;;;4992876;28;20088;-82
2021/07/20 10:11:26;;;;;;;17.92;9.57;;;20.50;99.90;;;;;;4992317;28;20050;-82
2021/07/20 10:14:06;;;;;;;17.42;9.13;;;20.40;99.90;;;;;;5007600;28;20080;-82
2021/07/20 10:16:54;;;;;;;17.27;9.15;;;20.40;99.90;;;;;;4994680;28;20108;-83
2021/07/20 10:19:40;;;;;;;18.80;8.48;;;20.50;99.90;;;;;;5011779;28;20033;-82
2021/07/20 10:22:10;;;;;;;20.85;9.75;;;21.10;99.90;;;;;;5011526;28;20022;-82
2021/07/20 10:24:40;;;;;;;13.82;8.32;;;21.40;99.90;;;;;;5011815;28;20029;-80
2021/07/20 10:27:17;;;;;;;17.05;8.90;;;21.60;99.90;;;;;;5022554;28;20023;-83
2021/07/20 10:30:08;;;;;;;13.15;8.13;;;21.20;99.90;;;;;;4992154;28;20027;-83
2021/07/20 10:32:36;;;;;;;16.13;10.23;;;21.10;99.90;;;;;;4992133;28;20109;-80
2021/07/20 10:35:07;;;;;;;17.63;9.93;;;21.00;99.90;;;;;;4997794;28;20037;-81
2021/07/20 10:37:36;;;;;;;12.43;8.68;;;20.70;99.90;;;;;;5008092;28;20037;-83
2021/07/20 10:40:14;;;;;;;15.93;8.52;;;20.60;99.90;;;;;;5008008;28;20473;-86
2021/07/20 10:43:08;;;;;;;16.48;8.48;;;21.10;99.90;;;;;;5007123;28;20066;-83
2021/07/20 10:45:35;;;;;;;15.90;8.45;;;21.30;99.90;;;;;;5017351;28;20026;-82
2021/07/20 10:48:05;;;;;;;16.10;9.35;;;21.10;99.90;;;;;;5012237;28;20022;-82
2021/07/20 10:50:51;;;;;;;16.58;9.25;;;20.80;99.90;;;;;;5021438;28;20033;-83
2021/07/20 10:53:35;;;;;;;13.75;8.45;;;20.80;99.90;;;;;;4975563;28;20699;-84
2021/07/20 10:56:07;;;;;;;;;;;20.90;99.90;;;;;;5016341;28;20022;-83
2021/07/20 10:58:48;;;;;;;17.40;7.07;;;20.70;99.90;;;;;;5005835;28;19914;-83
2021/07/20 11:01:20;;;;;;;12.05;7.90;;;20.90;99.90;;;;;;5016600;28;20611;-81
2021/07/20 11:04:05;;;;;;;10.40;7.32;;;21.20;99.90;;;;;;5023771;28;20044;-83
2021/07/20 11:06:34;;;;;;;13.98;7.13;;;21.30;99.90;;;;;;5016815;28;20156;-85
2021/07/20 11:09:03;;;;;;;11.27;6.05;;;21.60;99.90;;;;;;5017702;28;20032;-81
2021/07/20 11:11:38;;;;;;;11.95;7.57;;;21.70;99.90;;;;;;5011694;28;20026;-83
2021/07/20 11:14:05;;;;;;;9.18;6.18;;;21.50;99.90;;;;;;5028372;28;20091;-82
2021/07/20 11:16:33;;;;;;;9.30;6.00;;;21.20;99.90;;;;;;5019278;28;20029;-81
2021/07/20 11:19:00;;;;;;;9.82;6.57;;;20.90;99.90;;;;;;5017192;28;20486;-83
2021/07/20 11:21:28;;;;;;;12.98;6.72;;;20.80;99.90;;;;;;5022876;28;20120;-83
2021/07/20 11:23:54;;;;;;;16.25;6.43;;;20.30;99.90;;;;;;5019873;28;20461;-83
2021/07/20 11:26:21;;;;;;;17.35;7.20;;;20.40;99.90;;;;;;5023993;28;20029;-83
2021/07/20 11:28:47;;;;;;;12.20;6.47;;;20.30;99.90;;;;;;5018274;28;20030;-83
2021/07/20 11:31:23;;;;;;;12.77;6.35;;;20.60;99.90;;;;;;5014937;28;20030;-82
2021/07/20 11:34:00;;;;;;;12.90;6.53;;;20.40;99.90;;;;;;5024772;28;20512;-83
2021/07/20 11:36:32;;;;;;;12.63;5.72;;;20.40;99.90;;;;;;5028934;28;20025;-83
2021/07/20 11:39:00;;;;;;;22.33;6.13;;;20.50;99.90;;;;;;5021969;28;20490;-84
2021/07/20 11:41:33;;;;;;;14.40;6.40;;;20.30;99.90;;;;;;5011779;28;20030;-84
2021/07/20 11:44:26;;;;;;;12.55;6.75;;;20.00;99.90;;;;;;5020356;28;20522;-84
2021/07/20 11:46:58;;;;;;;11.07;6.22;;;19.80;99.90;;;;;;5019053;28;20482;-81
2021/07/20 11:49:44;;;;;;;10.73;6.43;;;19.50;99.90;;;;;;5028449;28;20026;-81
2021/07/20 11:52:15;;;;;;;12.13;6.55;;;19.50;99.90;;;;;;5014168;28;20056;-83
2021/07/20 11:55:16;;;;;;;14.70;5.72;;;19.60;99.90;;;;;;5018056;28;20026;-83
2021/07/20 11:57:45;;;;;;;8.65;5.18;;;19.70;99.90;;;;;;5022622;28;20091;-81
2021/07/20 12:00:29;;;;;;;13.25;6.07;;;19.70;99.90;;;;;;5020083;28;20018;-85
2021/07/20 12:03:13;;;;;;;8.65;6.00;;;19.90;99.90;;;;;;5015791;28;20030;-85
2021/07/20 12:05:57;;;;;;;12.10;5.63;;;20.20;99.90;;;;;;5032933;28;20028;-84
2021/07/20 12:08:44;;;;;;;9.23;5.47;;;20.10;99.90;;;;;;5033887;28;20025;-84
2021/07/20 12:11:32;;;;;;;10.20;4.85;;;20.10;99.90;;;;;;5033628;28;20160;-85
2021/07/20 12:14:09;;;;;;;10.23;5.82;;;20.20;99.90;;;;;;5008172;28;20061;-83
2021/07/20 12:16:45;;;;;;;11.18;5.35;;;20.20;99.90;;;;;;5017340;28;20033;-85
2021/07/20 12:19:12;;;;;;;12.20;5.43;;;20.30;99.90;;;;;;5019098;28;20437;-86
2021/07/20 12:21:49;;;;;;;8.90;4.45;;;20.60;99.90;;;;;;5019429;28;20045;-85
2021/07/20 12:24:14;;;;;;;7.68;5.35;;;20.90;99.90;;;;;;5007741;28;20432;-86
2021/07/20 12:26:40;;;;;;;9.93;5.88;;;21.30;99.90;;;;;;5027246;28;20026;-84
2021/07/20 12:29:10;;;;;;;11.65;5.22;;;21.60;99.90;;;;;;5015204;28;20026;-87
2021/07/20 12:31:37;;;;;;;10.25;4.53;;;21.60;99.90;;;;;;5014322;28;20022;-85
2021/07/20 12:34:03;;;;;;;14.38;5.70;;;21.40;99.90;;;;;;5014418;28;20413;-83
2021/07/20 12:36:30;;;;;;;13.07;5.68;;;21.30;99.90;;;;;;5028816;28;20108;-83
2021/07/20 12:39:07;;;;;;;9.77;5.15;;;21.20;99.90;;;;;;5013325;28;20229;-86
2021/07/20 12:41:34;;;;;;;11.98;5.13;;;21.20;99.90;;;;;;5013357;28;20097;-83
2021/07/20 12:44:01;;;;;;;7.28;4.78;;;21.50;99.90;;;;;;5003544;28;20116;-84
2021/07/20 12:46:29;;;;;;;9.15;5.15;;;21.40;99.90;;;;;;4993730;28;20069;-85
2021/07/20 12:48:55;;;;;;;8.05;4.70;;;22.50;99.90;;;;;;5008958;28;20042;-84
2021/07/20 12:51:23;;;;;;;8.63;4.68;;;23.40;99.90;;;;;;4993472;28;20018;-84
2021/07/20 12:53:53;;;;;;;9.07;5.18;;;23.40;99.90;;;;;;4999897;28;20030;-83
2021/07/20 12:56:25;;;;;;;7.35;4.25;;;23.10;99.90;;;;;;5013198;28;20053;-83